Monday, November 24, 2014
21:32 UTC
  |  Log In   |  Register Free
Airport Search:

Richmond Municipal Airport
(KRID)

Richmond Municipal Airport Diagram
No Airport Diagram Available

FAA data valid effective November 13, 2014 - January 08, 2015 (unless otherwise noted).

 
 
 
 
 
 
 
 
 
 
 
 
 
 

Current Aviation Weather for Richmond Municipal Airport (KRID)

METAR data is unavailable for RID. The nearest METAR location is at KMWO (24.7 nm SE from RID).

The most recent METAR observation for KMWO was updated at: 2116
METAR Summary (Translated METAR)
KMWO
242055Z AUTO 24017G28KT 10SM OVC032 08/01 A2971 RMK AO2 T00800009
(24.7 nm SE from KRID)
KHAO
242053Z AUTO 24014G22KT 10SM OVC033 07/01 A2971 RMK AO2 PK WND 24029/2006 SLP060 T00720011 51046
(27.9 nm SE from KRID)
TAF Summary (Translated TAF)
KDAY
(23.7 nm NE from KMWO)
242101Z 2421/2518 24022G32KT P6SM VCSH OVC025 FM250200 23015G25KT P6SM OVC025 FM251100 25012G20KT P6SM OVC022 FM251600 25012KT P6SM OVC025
  Airport Weather Conditions for KRID

Current weather conditions are
not available for RID


The nearest NOAA weather station
is at MWO, (24.7 nm SE from RID)
  
 Current Weather at MWO
46° F
Overcast
Southwest winds at 19.6 mph
MWO NOAA Radar

Pressure: 29.71 in
Humidity: 61%
Wind: from the Southwest at 19.6 gusting to 32.2 MPH (17 gusting to 28 KT)
Dew Point: 33.6°F
Visibility: 10.00 mi


Airport Weather Forecast for KRID

Translated METAR and TAF for KMWO
Translated METAR for KMWO (2127 UTC 24 November 2014)
found at http://aviationweather.gov/adds/metars/
 
METAR text: KMWO 242115Z AUTO 23017G24KT 10SM OVC032 08/01 A2972 RMK AO2 T00820012
Conditions at: KMWO (MIDDLETOWN/HOOK , OH, US) observed 2115 UTC 24 November 2014
Temperature: 8.2°C (47°F)
Dewpoint: 1.2°C (34°F) [RH = 61%]
Pressure (altimeter): 29.72 inches Hg (1006.5 mb)
Winds: from the SW (230 degrees) at 20 MPH (17 knots; 8.8 m/s)
gusting to 28 MPH (24 knots; 12.5 m/s)
Visibility: 10 or more miles (16+ km)
Ceiling: 3200 feet AGL
Clouds: overcast cloud deck at 3200 feet AGL
Weather: automated observation with no human augmentation;
there may or may not be significant weather present at this time
Translated TAF for KMWO

There is no translated TAF available for this airport

Find All Airport Services Find A Hotel Find A Rental Car Find A Golf Course Find A Restaurant $100 Hamburger



FBO's on the Field
FBO Company Facility Photos Services Transportation Aviation Fuel Prices: Prices include tax
Catering Weather Repair Courtesy Rental Type 100LL JetA JetA+ MOGAS 8087
 
Richmond Municipal Airport

Currently rated 5 by 1 person
FS:Phillips 66
Last Updated: Nov-10
Login to update fuel prices
SS:
Contact Richmond Municipal AirportMore FBO Information
 
Add another FBO Facility Photos Catering Weather Repair Courtesy Rental Type 100LL JetA JetA+ MOGAS 8087
Services Transportation Aviation Fuel Prices: Prices include tax


model-print
model-print
model-print
model-print